Time;durP1;ratioP1;P1;durP2;ratioP2;P2;SDS_P1;SDS_P2;PMS_P1;PMS_P2;Temp;Humidity;BMP_temperature;BMP_pressure;BME280_temperature;BME280_humidity;BME280_pressure;Samples;Min_cycle;Max_cycle;Signal;HPM_P1;HPM_P2
2023/09/26 00:00:31;;;;;;;20.40;14.05;;;;;;;;;;2094635;28;20029;-72
2023/09/26 00:01:52;;;;;;;19.48;14.52;;;;;;;;;;2095771;28;20047;-73
2023/09/26 00:03:13;;;;;;;19.80;14.52;;;;;;;;;;2093279;28;20086;-72
2023/09/26 00:04:34;;;;;;;20.45;13.50;;;;;;;;;;2100600;28;20440;-72
2023/09/26 00:05:55;;;;;;;18.33;14.07;;;;;;;;;;2089998;28;20037;-73
2023/09/26 00:07:17;;;;;;;20.90;14.38;;;;;;;;;;2108002;27;20082;-73
2023/09/26 00:08:38;;;;;;;22.98;16.15;;;;;;;;;;2087627;28;20071;-73
2023/09/26 00:10:00;;;;;;;21.10;15.57;;;;;;;;;;2092226;28;20421;-71
2023/09/26 00:11:21;;;;;;;20.50;15.32;;;;;;;;;;2097894;28;20033;-72
2023/09/26 00:12:42;;;;;;;19.73;14.45;;;;;;;;;;2096203;28;20025;-72
2023/09/26 00:14:04;;;;;;;21.95;15.52;;;;;;;;;;2092195;28;20079;-72
2023/09/26 00:15:25;;;;;;;23.20;15.35;;;;;;;;;;2096544;28;20094;-73
2023/09/26 00:16:46;;;;;;;19.88;13.95;;;;;;;;;;2086139;28;20083;-72
2023/09/26 00:18:07;;;;;;;18.45;15.10;;;;;;;;;;2092254;28;20062;-73
2023/09/26 00:19:28;;;;;;;19.20;13.48;;;;;;;;;;2095120;28;20036;-73
2023/09/26 00:20:49;;;;;;;18.77;13.63;;;;;;;;;;2094016;28;20476;-72
2023/09/26 00:22:10;;;;;;;18.17;13.75;;;;;;;;;;2093730;28;20032;-72
2023/09/26 00:23:31;;;;;;;20.50;14.38;;;;;;;;;;2094094;28;20036;-72
2023/09/26 00:24:52;;;;;;;20.00;14.93;;;;;;;;;;2092355;28;20037;-73
2023/09/26 00:26:13;;;;;;;19.00;15.65;;;;;;;;;;2089503;28;20446;-73
2023/09/26 00:27:34;;;;;;;22.00;15.13;;;;;;;;;;2094645;28;20044;-72
2023/09/26 00:28:55;;;;;;;17.83;14.13;;;;;;;;;;2093615;28;20041;-72
2023/09/26 00:30:16;;;;;;;19.48;14.90;;;;;;;;;;2093955;28;20025;-71
2023/09/26 00:31:37;;;;;;;22.27;15.50;;;;;;;;;;2092152;28;20037;-71
2023/09/26 00:32:58;;;;;;;23.05;15.80;;;;;;;;;;2093264;28;20028;-71
2023/09/26 00:34:19;;;;;;;22.67;15.20;;;;;;;;;;2094408;28;20033;-72
2023/09/26 00:35:40;;;;;;;22.38;15.00;;;;;;;;;;2094021;28;20036;-72
2023/09/26 00:37:01;;;;;;;23.00;15.38;;;;;;;;;;2094799;28;20098;-71
2023/09/26 00:38:22;;;;;;;23.60;16.42;;;;;;;;;;2093999;28;20561;-72
2023/09/26 00:39:43;;;;;;;22.38;16.77;;;;;;;;;;2093051;28;20121;-71
2023/09/26 00:41:05;;;;;;;24.80;15.95;;;;;;;;;;2094834;28;20036;-71
2023/09/26 00:42:26;;;;;;;19.63;15.00;;;;;;;;;;2092481;28;20553;-72
2023/09/26 00:43:48;;;;;;;20.13;15.57;;;;;;;;;;2093539;28;20387;-72
2023/09/26 00:45:09;;;;;;;22.05;15.88;;;;;;;;;;2092929;28;20141;-72
2023/09/26 00:46:32;;;;;;;24.67;16.13;;;;;;;;;;2096947;28;20036;-70
2023/09/26 00:47:53;;;;;;;29.52;16.52;;;;;;;;;;2096122;28;20116;-71
2023/09/26 00:49:15;;;;;;;21.02;16.67;;;;;;;;;;2093459;28;20786;-71
2023/09/26 00:50:36;;;;;;;26.58;16.50;;;;;;;;;;2092902;28;20086;-71
2023/09/26 00:51:58;;;;;;;22.80;15.30;;;;;;;;;;2095262;28;20037;-70
2023/09/26 00:53:20;;;;;;;20.60;16.05;;;;;;;;;;2094096;28;20216;-72
2023/09/26 00:54:41;;;;;;;23.83;17.92;;;;;;;;;;2091326;28;20033;-70
2023/09/26 00:56:03;;;;;;;23.00;16.85;;;;;;;;;;2090665;28;20032;-71
2023/09/26 00:57:23;;;;;;;22.15;16.83;;;;;;;;;;2093218;28;20097;-71
2023/09/26 00:58:45;;;;;;;22.77;18.02;;;;;;;;;;2091994;28;20078;-70
2023/09/26 01:00:12;;;;;;;28.52;16.90;;;;;;;;;;2094612;28;20040;-71
2023/09/26 01:01:34;;;;;;;23.55;16.27;;;;;;;;;;2093341;28;20016;-70
2023/09/26 01:02:56;;;;;;;24.38;17.75;;;;;;;;;;2092287;28;20499;-71
2023/09/26 01:04:18;;;;;;;27.65;17.50;;;;;;;;;;2096175;28;20033;-71
2023/09/26 01:05:38;;;;;;;22.80;18.10;;;;;;;;;;2091147;28;20028;-73
2023/09/26 01:06:59;;;;;;;24.15;18.20;;;;;;;;;;2093958;28;20074;-70
2023/09/26 01:08:20;;;;;;;25.90;18.95;;;;;;;;;;2095236;27;20037;-70
2023/09/26 01:09:41;;;;;;;25.20;18.17;;;;;;;;;;2093207;28;20036;-72
2023/09/26 01:11:03;;;;;;;30.58;19.40;;;;;;;;;;2091745;28;20033;-71
2023/09/26 01:12:24;;;;;;;25.70;18.85;;;;;;;;;;2091731;28;20024;-72
2023/09/26 01:13:45;;;;;;;24.38;17.63;;;;;;;;;;2092480;28;20025;-73
2023/09/26 01:15:06;;;;;;;25.83;18.73;;;;;;;;;;2093187;28;20034;-70
2023/09/26 01:16:27;;;;;;;20.60;16.70;;;;;;;;;;2092185;28;20433;-70
2023/09/26 01:17:48;;;;;;;26.13;18.83;;;;;;;;;;2090126;28;20044;-71
2023/09/26 01:19:09;;;;;;;23.50;17.20;;;;;;;;;;2093869;28;20122;-71
2023/09/26 01:20:30;;;;;;;25.48;17.75;;;;;;;;;;2100857;28;20046;-70
2023/09/26 01:21:52;;;;;;;21.83;16.67;;;;;;;;;;2092998;28;20032;-71
2023/09/26 01:23:14;;;;;;;26.58;18.15;;;;;;;;;;2091335;28;20098;-72
2023/09/26 01:24:37;;;;;;;26.70;17.67;;;;;;;;;;2091374;28;20499;-71
2023/09/26 01:25:58;;;;;;;28.00;17.88;;;;;;;;;;2093026;28;20464;-72
2023/09/26 01:27:19;;;;;;;26.58;18.40;;;;;;;;;;2092773;28;20025;-70
2023/09/26 01:28:40;;;;;;;24.90;18.17;;;;;;;;;;2094499;28;20492;-72
2023/09/26 01:30:01;;;;;;;25.65;17.80;;;;;;;;;;2094155;28;20044;-71
2023/09/26 01:31:22;;;;;;;23.60;17.40;;;;;;;;;;2091396;28;20054;-71
2023/09/26 01:32:43;;;;;;;24.52;16.67;;;;;;;;;;2092828;28;20380;-72
2023/09/26 01:34:03;;;;;;;26.42;17.17;;;;;;;;;;2096761;28;20085;-72
2023/09/26 01:35:24;;;;;;;24.00;17.33;;;;;;;;;;2093405;28;20721;-72
2023/09/26 01:36:45;;;;;;;26.50;17.85;;;;;;;;;;2094900;28;20048;-70
2023/09/26 01:38:06;;;;;;;22.77;16.38;;;;;;;;;;2094337;28;20033;-70
2023/09/26 01:39:29;;;;;;;27.48;18.15;;;;;;;;;;2090972;28;20029;-72
2023/09/26 01:40:50;;;;;;;26.25;17.33;;;;;;;;;;2083718;28;20407;-73
2023/09/26 01:42:10;;;;;;;22.42;17.20;;;;;;;;;;2094062;28;20037;-73
2023/09/26 01:43:31;;;;;;;26.15;17.90;;;;;;;;;;2092402;28;20025;-73
2023/09/26 01:44:52;;;;;;;25.35;17.48;;;;;;;;;;2093190;28;20058;-74
2023/09/26 01:46:13;;;;;;;24.88;17.88;;;;;;;;;;2090889;28;20039;-74
2023/09/26 01:47:47;;;;;;;27.00;16.98;;;;;;;;;;2092819;28;20568;-73
2023/09/26 01:49:08;;;;;;;22.92;16.50;;;;;;;;;;2086484;28;20037;-73
2023/09/26 01:50:29;;;;;;;25.48;18.27;;;;;;;;;;2093535;28;21250;-73
2023/09/26 01:51:50;;;;;;;20.52;15.65;;;;;;;;;;2092716;28;20028;-74
2023/09/26 01:53:13;;;;;;;23.63;17.60;;;;;;;;;;2093664;28;20480;-74
2023/09/26 01:54:34;;;;;;;25.27;17.48;;;;;;;;;;2093891;28;20032;-74
2023/09/26 01:55:58;;;;;;;25.50;17.33;;;;;;;;;;2091414;28;20028;-74
2023/09/26 01:57:18;;;;;;;25.85;16.48;;;;;;;;;;2092665;28;20086;-73
2023/09/26 01:58:39;;;;;;;29.38;17.60;;;;;;;;;;2084870;28;20579;-74
2023/09/26 02:00:01;;;;;;;26.75;17.67;;;;;;;;;;2092793;28;20143;-73
2023/09/26 02:01:22;;;;;;;26.02;17.30;;;;;;;;;;2093206;28;20041;-74
2023/09/26 02:02:46;;;;;;;23.02;17.45;;;;;;;;;;2090799;28;20451;-73
2023/09/26 02:04:07;;;;;;;21.23;16.33;;;;;;;;;;2094840;28;20032;-74
2023/09/26 02:05:28;;;;;;;25.50;17.27;;;;;;;;;;2093846;28;20032;-74
2023/09/26 02:06:49;;;;;;;26.23;16.98;;;;;;;;;;2094839;28;20395;-73
2023/09/26 02:08:10;;;;;;;21.85;16.30;;;;;;;;;;2099588;28;20029;-73
2023/09/26 02:09:31;;;;;;;23.17;16.52;;;;;;;;;;2093167;28;20055;-74
2023/09/26 02:10:52;;;;;;;22.73;17.13;;;;;;;;;;2100120;28;20067;-74
2023/09/26 02:12:13;;;;;;;23.33;17.58;;;;;;;;;;2093853;28;20031;-74
2023/09/26 02:13:34;;;;;;;24.95;17.05;;;;;;;;;;2092536;28;20037;-74
2023/09/26 02:14:55;;;;;;;22.05;15.65;;;;;;;;;;2100371;28;20466;-74
2023/09/26 02:16:15;;;;;;;21.40;15.55;;;;;;;;;;2086680;28;20118;-73
2023/09/26 02:17:36;;;;;;;24.13;16.17;;;;;;;;;;2089625;28;20041;-74
2023/09/26 02:18:57;;;;;;;25.25;17.88;;;;;;;;;;2092571;28;20044;-73
2023/09/26 02:20:19;;;;;;;23.83;16.15;;;;;;;;;;2096387;28;20587;-74
2023/09/26 02:21:40;;;;;;;23.77;16.05;;;;;;;;;;2096742;28;20083;-73
2023/09/26 02:23:01;;;;;;;24.55;16.33;;;;;;;;;;2106515;28;20043;-74
2023/09/26 02:24:22;;;;;;;26.48;16.70;;;;;;;;;;2098595;28;20036;-74
2023/09/26 02:25:52;;;;;;;25.67;17.37;;;;;;;;;;2086375;28;20025;-74
2023/09/26 02:27:13;;;;;;;22.98;17.75;;;;;;;;;;2094142;28;20036;-73
2023/09/26 02:28:34;;;;;;;23.13;16.75;;;;;;;;;;2093865;28;20028;-74
2023/09/26 02:29:55;;;;;;;24.00;16.85;;;;;;;;;;2094344;28;20581;-74
2023/09/26 02:31:16;;;;;;;25.35;17.20;;;;;;;;;;2091302;28;20041;-74
2023/09/26 02:32:37;;;;;;;26.60;16.65;;;;;;;;;;2088070;28;20095;-73
2023/09/26 02:33:58;;;;;;;26.70;17.37;;;;;;;;;;2094978;28;20041;-74
2023/09/26 02:35:19;;;;;;;25.27;17.27;;;;;;;;;;2093264;28;20434;-74
2023/09/26 02:36:40;;;;;;;27.50;16.87;;;;;;;;;;2092456;28;20688;-74
2023/09/26 02:38:01;;;;;;;21.20;16.20;;;;;;;;;;2096179;28;20793;-74
2023/09/26 02:39:22;;;;;;;24.08;18.52;;;;;;;;;;2089401;28;20089;-74
2023/09/26 02:40:43;;;;;;;21.17;16.42;;;;;;;;;;2094871;28;20094;-73
2023/09/26 02:42:03;;;;;;;21.48;15.88;;;;;;;;;;2095748;28;20033;-74
2023/09/26 02:43:25;;;;;;;19.33;15.57;;;;;;;;;;2096127;28;20513;-75
2023/09/26 02:44:46;;;;;;;19.65;15.10;;;;;;;;;;2095475;28;20117;-74
2023/09/26 02:46:07;;;;;;;22.38;16.13;;;;;;;;;;2095702;28;20040;-74
2023/09/26 02:47:28;;;;;;;25.13;17.27;;;;;;;;;;2102804;27;20040;-73
2023/09/26 02:48:49;;;;;;;23.10;16.98;;;;;;;;;;2096917;28;20102;-74
2023/09/26 02:50:10;;;;;;;23.65;16.83;;;;;;;;;;2096168;28;20036;-73
2023/09/26 02:51:31;;;;;;;22.75;16.60;;;;;;;;;;2088076;28;20492;-74
2023/09/26 02:52:52;;;;;;;22.33;17.00;;;;;;;;;;2095590;28;20033;-70
2023/09/26 02:54:13;;;;;;;31.38;18.83;;;;;;;;;;2095556;28;20480;-70
2023/09/26 02:55:38;;;;;;;21.10;17.00;;;;;;;;;;2087686;28;20086;-71
2023/09/26 02:56:59;;;;;;;25.08;17.80;;;;;;;;;;2091483;28;20059;-71
2023/09/26 02:58:20;;;;;;;26.65;17.67;;;;;;;;;;2094499;28;20075;-71
2023/09/26 02:59:41;;;;;;;23.95;17.35;;;;;;;;;;2094444;28;20048;-71
2023/09/26 03:01:03;;;;;;;26.02;17.17;;;;;;;;;;2091188;28;20037;-72
2023/09/26 03:02:24;;;;;;;23.92;17.60;;;;;;;;;;2094174;28;20032;-71
2023/09/26 03:03:45;;;;;;;23.45;17.50;;;;;;;;;;2096205;28;20028;-71
2023/09/26 03:05:06;;;;;;;22.10;16.27;;;;;;;;;;2096644;28;20082;-72
2023/09/26 03:06:26;;;;;;;21.35;16.50;;;;;;;;;;2093637;28;20113;-70
2023/09/26 03:07:47;;;;;;;22.27;17.55;;;;;;;;;;2094320;28;20033;-71
2023/09/26 03:09:09;;;;;;;25.88;18.17;;;;;;;;;;2092397;28;20442;-71
2023/09/26 03:10:30;;;;;;;26.77;16.10;;;;;;;;;;2091519;28;20082;-71
2023/09/26 03:11:51;;;;;;;24.50;16.90;;;;;;;;;;2093565;28;20037;-71
2023/09/26 03:13:12;;;;;;;23.77;17.58;;;;;;;;;;2086995;28;20095;-70
2023/09/26 03:14:33;;;;;;;25.52;17.30;;;;;;;;;;2094796;28;20037;-71
2023/09/26 03:15:55;;;;;;;26.08;17.58;;;;;;;;;;2092410;28;20078;-73
2023/09/26 03:17:16;;;;;;;23.83;17.38;;;;;;;;;;2094569;28;20090;-70
2023/09/26 03:18:37;;;;;;;23.13;16.92;;;;;;;;;;2103247;28;20028;-70
2023/09/26 03:19:58;;;;;;;24.55;16.65;;;;;;;;;;2099469;28;20037;-71
2023/09/26 03:21:19;;;;;;;22.17;16.02;;;;;;;;;;2090573;28;20037;-71
2023/09/26 03:22:39;;;;;;;20.95;15.63;;;;;;;;;;2094429;28;20070;-72
2023/09/26 03:24:00;;;;;;;23.83;16.33;;;;;;;;;;2093026;28;20036;-70
2023/09/26 03:25:21;;;;;;;25.60;17.58;;;;;;;;;;2094187;28;20380;-70
2023/09/26 03:26:42;;;;;;;24.38;16.48;;;;;;;;;;2095226;28;20067;-71
2023/09/26 03:28:03;;;;;;;22.55;15.85;;;;;;;;;;2093697;28;20094;-72
2023/09/26 03:29:24;;;;;;;21.33;15.13;;;;;;;;;;2091971;28;20187;-71
2023/09/26 03:30:46;;;;;;;21.33;16.13;;;;;;;;;;2090747;28;20051;-72
2023/09/26 03:32:07;;;;;;;24.17;16.50;;;;;;;;;;2094046;28;20036;-72
2023/09/26 03:33:28;;;;;;;22.55;17.20;;;;;;;;;;2093333;28;20029;-71
2023/09/26 03:34:49;;;;;;;24.38;16.67;;;;;;;;;;2094152;28;20028;-73
2023/09/26 03:36:10;;;;;;;20.23;16.20;;;;;;;;;;2094934;28;20040;-70
2023/09/26 03:37:31;;;;;;;24.70;17.75;;;;;;;;;;2093674;28;20511;-71
2023/09/26 03:38:52;;;;;;;22.10;16.17;;;;;;;;;;2092465;28;20082;-71
2023/09/26 03:40:13;;;;;;;23.50;17.58;;;;;;;;;;2093869;28;20366;-71
2023/09/26 03:41:34;;;;;;;26.00;17.52;;;;;;;;;;2091796;28;20033;-72
2023/09/26 03:42:55;;;;;;;24.83;16.17;;;;;;;;;;2091592;28;20040;-70
2023/09/26 03:44:16;;;;;;;22.92;15.63;;;;;;;;;;2092223;28;20028;-71
2023/09/26 03:45:36;;;;;;;20.63;16.02;;;;;;;;;;2093686;28;20570;-70
2023/09/26 03:46:57;;;;;;;22.10;16.20;;;;;;;;;;2090815;28;20086;-70
2023/09/26 03:48:18;;;;;;;23.90;15.68;;;;;;;;;;2095201;28;20618;-70
2023/09/26 03:49:39;;;;;;;22.67;17.00;;;;;;;;;;2091017;28;20081;-71
2023/09/26 03:51:10;;;;;;;24.35;16.77;;;;;;;;;;2095620;28;20028;-71
2023/09/26 03:52:31;;;;;;;21.38;16.20;;;;;;;;;;2093562;28;20109;-71
2023/09/26 03:53:52;;;;;;;20.83;15.70;;;;;;;;;;2098759;28;20032;-70
2023/09/26 03:55:12;;;;;;;25.10;16.27;;;;;;;;;;2081564;28;20033;-72
2023/09/26 03:56:33;;;;;;;23.83;16.92;;;;;;;;;;2091098;28;20028;-70
2023/09/26 03:57:54;;;;;;;25.90;17.63;;;;;;;;;;2093929;28;20423;-71
2023/09/26 03:59:16;;;;;;;23.17;16.95;;;;;;;;;;2094497;28;20224;-73
2023/09/26 04:00:37;;;;;;;24.23;17.90;;;;;;;;;;2086649;28;20033;-71
2023/09/26 04:01:57;;;;;;;24.08;16.92;;;;;;;;;;2091970;28;20036;-71
2023/09/26 04:03:19;;;;;;;26.65;17.20;;;;;;;;;;2095135;28;20065;-74
2023/09/26 04:04:39;;;;;;;24.42;16.13;;;;;;;;;;2097227;28;20080;-74
2023/09/26 04:06:00;;;;;;;27.17;17.88;;;;;;;;;;2097148;28;20024;-74
2023/09/26 04:07:25;;;;;;;29.15;18.85;;;;;;;;;;2093167;28;20090;-74
2023/09/26 04:08:46;;;;;;;21.95;15.48;;;;;;;;;;2093436;28;20033;-74
2023/09/26 04:10:08;;;;;;;22.30;16.92;;;;;;;;;;2094635;28;20045;-73
2023/09/26 04:11:29;;;;;;;26.45;17.98;;;;;;;;;;2097534;28;20036;-74
2023/09/26 04:12:49;;;;;;;24.33;16.17;;;;;;;;;;2096631;28;20498;-74
2023/09/26 04:14:10;;;;;;;23.98;17.55;;;;;;;;;;2095171;28;20036;-73
2023/09/26 04:15:31;;;;;;;22.45;15.90;;;;;;;;;;2092878;28;20075;-74
2023/09/26 04:16:52;;;;;;;25.95;16.45;;;;;;;;;;2095581;28;20037;-74
2023/09/26 04:18:13;;;;;;;21.50;16.45;;;;;;;;;;2093690;28;20488;-73
2023/09/26 04:19:34;;;;;;;19.00;16.10;;;;;;;;;;2094268;28;20072;-74
2023/09/26 04:20:55;;;;;;;23.23;16.05;;;;;;;;;;2096643;28;20086;-73
2023/09/26 04:22:16;;;;;;;23.48;17.23;;;;;;;;;;2102223;28;20024;-74
2023/09/26 04:23:37;;;;;;;22.35;16.33;;;;;;;;;;2098626;28;20032;-73
2023/09/26 04:24:58;;;;;;;25.88;16.90;;;;;;;;;;2094092;28;20419;-73
2023/09/26 04:26:19;;;;;;;23.67;18.10;;;;;;;;;;2092411;28;20131;-74
2023/09/26 04:27:40;;;;;;;22.80;15.93;;;;;;;;;;2093567;28;20025;-74
2023/09/26 04:29:01;;;;;;;23.80;16.70;;;;;;;;;;2094413;28;20044;-74
2023/09/26 04:30:23;;;;;;;24.52;16.90;;;;;;;;;;2093887;28;20024;-74
2023/09/26 04:31:44;;;;;;;24.42;16.83;;;;;;;;;;2085751;28;20102;-74
2023/09/26 04:33:06;;;;;;;26.13;18.60;;;;;;;;;;2094284;28;20032;-73
2023/09/26 04:34:29;;;;;;;24.38;17.65;;;;;;;;;;2092594;28;20106;-74
2023/09/26 04:35:54;;;;;;;25.65;18.95;;;;;;;;;;2091773;28;20036;-73
2023/09/26 04:37:15;;;;;;;26.52;18.88;;;;;;;;;;2086603;28;20562;-73
2023/09/26 04:38:37;;;;;;;22.48;16.20;;;;;;;;;;2088670;28;20036;-73
2023/09/26 04:39:58;;;;;;;26.83;16.70;;;;;;;;;;2097772;28;20052;-74
2023/09/26 04:41:19;;;;;;;21.92;16.75;;;;;;;;;;2096776;28;20403;-74
2023/09/26 04:42:41;;;;;;;22.67;17.75;;;;;;;;;;2094667;28;20037;-74
2023/09/26 04:44:02;;;;;;;24.02;17.85;;;;;;;;;;2100681;28;20024;-74
2023/09/26 04:45:23;;;;;;;26.92;18.85;;;;;;;;;;2097302;28;20341;-73
2023/09/26 04:46:45;;;;;;;22.88;16.83;;;;;;;;;;2094067;28;20024;-74
2023/09/26 04:48:06;;;;;;;27.23;17.60;;;;;;;;;;2085506;28;20033;-74
2023/09/26 04:49:27;;;;;;;24.98;18.05;;;;;;;;;;2095837;28;20476;-75
2023/09/26 04:50:48;;;;;;;22.98;17.88;;;;;;;;;;2094865;28;20040;-74
2023/09/26 04:52:09;;;;;;;22.27;17.70;;;;;;;;;;2085237;28;20627;-73
2023/09/26 04:53:31;;;;;;;25.33;18.85;;;;;;;;;;2092332;28;20058;-73
2023/09/26 04:54:52;;;;;;;21.42;16.67;;;;;;;;;;2095211;28;20538;-75
2023/09/26 04:56:13;;;;;;;23.27;17.65;;;;;;;;;;2093528;28;20028;-74
2023/09/26 04:57:34;;;;;;;28.73;18.38;;;;;;;;;;2089190;28;20098;-73
2023/09/26 04:58:55;;;;;;;28.70;17.95;;;;;;;;;;2093449;28;20044;-73
2023/09/26 05:00:19;;;;;;;28.52;19.50;;;;;;;;;;2091725;28;20029;-74
2023/09/26 05:01:40;;;;;;;24.48;18.20;;;;;;;;;;2094091;28;20070;-74
2023/09/26 05:03:02;;;;;;;27.83;17.05;;;;;;;;;;2093921;28;20380;-74
2023/09/26 05:04:23;;;;;;;25.10;16.50;;;;;;;;;;2094063;28;20536;-74
2023/09/26 05:05:43;;;;;;;25.45;17.92;;;;;;;;;;2091609;28;20422;-74
2023/09/26 05:07:07;;;;;;;23.67;16.73;;;;;;;;;;2092673;28;20090;-74
2023/09/26 05:08:28;;;;;;;28.67;17.27;;;;;;;;;;2092026;28;20036;-74
2023/09/26 05:09:49;;;;;;;26.55;17.92;;;;;;;;;;2090724;28;20487;-74
2023/09/26 05:11:15;;;;;;;26.02;19.15;;;;;;;;;;2091895;28;20037;-74
2023/09/26 05:12:40;;;;;;;22.75;16.98;;;;;;;;;;2092645;28;20036;-72
2023/09/26 05:14:01;;;;;;;25.23;17.35;;;;;;;;;;2093090;28;20032;-73
2023/09/26 05:15:22;;;;;;;26.77;17.95;;;;;;;;;;2097251;28;20581;-74
2023/09/26 05:16:43;;;;;;;27.65;18.60;;;;;;;;;;2094828;28;20032;-74
2023/09/26 05:18:04;;;;;;;27.00;17.77;;;;;;;;;;2093354;28;20036;-74
2023/09/26 05:19:25;;;;;;;24.55;17.95;;;;;;;;;;2097151;28;20453;-74
2023/09/26 05:20:45;;;;;;;26.98;17.38;;;;;;;;;;2109901;28;20107;-73
2023/09/26 05:22:07;;;;;;;23.05;16.45;;;;;;;;;;2097291;28;20044;-73
2023/09/26 05:23:29;;;;;;;24.30;17.58;;;;;;;;;;2097357;28;20078;-74
2023/09/26 05:24:50;;;;;;;25.77;17.52;;;;;;;;;;2094882;28;20094;-73
2023/09/26 05:26:11;;;;;;;22.60;16.27;;;;;;;;;;2092955;28;20111;-73
2023/09/26 05:27:32;;;;;;;21.70;16.05;;;;;;;;;;2085953;28;20090;-74
2023/09/26 05:28:53;;;;;;;26.23;16.50;;;;;;;;;;2096452;28;20044;-73
2023/09/26 05:30:14;;;;;;;28.10;17.35;;;;;;;;;;2090075;28;20097;-73
2023/09/26 05:31:35;;;;;;;25.25;16.25;;;;;;;;;;2086126;28;20029;-72
2023/09/26 05:32:57;;;;;;;25.35;16.65;;;;;;;;;;2089427;28;20067;-73
2023/09/26 05:34:18;;;;;;;22.17;16.45;;;;;;;;;;2094801;28;20085;-74
2023/09/26 05:35:39;;;;;;;24.33;16.80;;;;;;;;;;2090986;28;20045;-74
2023/09/26 05:37:00;;;;;;;21.13;15.60;;;;;;;;;;2093015;28;20040;-74
2023/09/26 05:38:21;;;;;;;24.02;16.75;;;;;;;;;;2092293;28;20787;-73
2023/09/26 05:39:42;;;;;;;27.08;17.27;;;;;;;;;;2096058;28;20505;-74
2023/09/26 05:41:05;;;;;;;21.85;16.50;;;;;;;;;;2095703;28;20033;-74
2023/09/26 05:42:26;;;;;;;25.50;16.92;;;;;;;;;;2090157;28;20059;-73
2023/09/26 05:43:47;;;;;;;21.27;15.75;;;;;;;;;;2093656;28;20037;-73
2023/09/26 05:45:09;;;;;;;25.85;15.07;;;;;;;;;;2095202;28;20522;-74
2023/09/26 05:46:30;;;;;;;23.25;16.38;;;;;;;;;;2098332;28;20029;-73
2023/09/26 05:47:51;;;;;;;21.15;15.45;;;;;;;;;;2096334;28;20074;-73
2023/09/26 05:49:12;;;;;;;23.50;16.05;;;;;;;;;;2094074;28;20032;-74
2023/09/26 05:50:33;;;;;;;25.10;15.93;;;;;;;;;;2094014;28;20062;-74
2023/09/26 05:51:54;;;;;;;25.05;16.25;;;;;;;;;;2094273;28;20033;-72
2023/09/26 05:53:15;;;;;;;27.35;16.40;;;;;;;;;;2092915;28;20032;-72
2023/09/26 05:54:36;;;;;;;20.15;15.50;;;;;;;;;;2095396;28;20059;-72
2023/09/26 05:55:57;;;;;;;24.33;16.58;;;;;;;;;;2096027;28;20033;-73
2023/09/26 05:57:18;;;;;;;20.98;14.90;;;;;;;;;;2089615;28;20036;-73
2023/09/26 05:58:39;;;;;;;20.95;15.65;;;;;;;;;;2091808;28;20025;-74
2023/09/26 06:00:00;;;;;;;23.45;15.50;;;;;;;;;;2093634;28;20501;-73
2023/09/26 06:01:20;;;;;;;23.08;15.45;;;;;;;;;;2090990;28;20040;-76
2023/09/26 06:02:42;;;;;;;23.10;16.05;;;;;;;;;;2093378;28;20027;-73
2023/09/26 06:04:02;;;;;;;22.83;17.38;;;;;;;;;;2084751;28;20037;-73
2023/09/26 06:05:23;;;;;;;21.98;15.43;;;;;;;;;;2091572;28;20396;-73
2023/09/26 06:06:44;;;;;;;22.92;17.05;;;;;;;;;;2089469;28;20090;-72
2023/09/26 06:08:05;;;;;;;23.60;16.02;;;;;;;;;;2093766;28;20135;-73
2023/09/26 06:09:26;;;;;;;19.58;15.27;;;;;;;;;;2091795;28;20102;-74
2023/09/26 06:10:53;;;;;;;22.25;15.88;;;;;;;;;;2094467;28;20033;-74
2023/09/26 06:12:13;;;;;;;25.77;16.20;;;;;;;;;;2090251;28;20028;-74
2023/09/26 06:13:34;;;;;;;24.75;16.17;;;;;;;;;;2084402;28;20029;-74
2023/09/26 06:14:56;;;;;;;24.95;17.30;;;;;;;;;;2093147;28;20021;-73
2023/09/26 06:16:16;;;;;;;21.33;15.65;;;;;;;;;;2089761;28;20033;-72
2023/09/26 06:17:40;;;;;;;23.30;16.35;;;;;;;;;;2095561;28;20029;-73
2023/09/26 06:19:00;;;;;;;22.92;16.02;;;;;;;;;;2093736;28;20649;-75
2023/09/26 06:20:21;;;;;;;23.80;16.35;;;;;;;;;;2089011;28;20048;-73
2023/09/26 06:21:42;;;;;;;22.40;14.68;;;;;;;;;;2102442;28;20033;-75
2023/09/26 06:23:04;;;;;;;21.85;15.23;;;;;;;;;;2104939;28;20035;-75
2023/09/26 06:24:25;;;;;;;28.20;16.77;;;;;;;;;;2089852;28;20513;-75
2023/09/26 06:25:55;;;;;;;24.90;16.05;;;;;;;;;;2100638;28;20033;-74
2023/09/26 06:27:16;;;;;;;25.60;17.58;;;;;;;;;;2094293;28;20082;-74
2023/09/26 06:28:37;;;;;;;22.83;16.25;;;;;;;;;;2096466;28;20160;-73
2023/09/26 06:29:58;;;;;;;20.40;15.20;;;;;;;;;;2094603;28;20044;-73
2023/09/26 06:31:19;;;;;;;28.25;17.98;;;;;;;;;;2092760;28;20025;-74
2023/09/26 06:32:40;;;;;;;22.85;16.42;;;;;;;;;;2096791;28;20082;-72
2023/09/26 06:34:01;;;;;;;23.45;16.65;;;;;;;;;;2093777;28;20032;-73
2023/09/26 06:35:22;;;;;;;28.73;20.50;;;;;;;;;;2100087;28;20144;-73
2023/09/26 06:36:45;;;;;;;22.30;16.48;;;;;;;;;;2096908;28;20460;-75
2023/09/26 06:38:06;;;;;;;28.88;17.83;;;;;;;;;;2090972;28;20516;-75
2023/09/26 06:39:27;;;;;;;27.60;16.77;;;;;;;;;;2095875;28;20550;-74
2023/09/26 06:40:48;;;;;;;23.33;17.73;;;;;;;;;;2097481;28;20045;-74
2023/09/26 06:42:09;;;;;;;28.23;17.17;;;;;;;;;;2095661;28;20033;-74
2023/09/26 06:43:30;;;;;;;25.15;16.05;;;;;;;;;;2096330;28;20025;-74
2023/09/26 06:44:51;;;;;;;21.08;15.55;;;;;;;;;;2096391;28;20573;-75
2023/09/26 06:46:11;;;;;;;24.33;16.60;;;;;;;;;;2094793;28;20032;-73
2023/09/26 06:47:32;;;;;;;22.80;15.05;;;;;;;;;;2101469;28;20036;-74
2023/09/26 06:48:53;;;;;;;23.23;15.73;;;;;;;;;;2095242;28;20480;-73
2023/09/26 06:50:14;;;;;;;20.17;14.90;;;;;;;;;;2096486;28;20051;-73
2023/09/26 06:51:35;;;;;;;23.77;15.55;;;;;;;;;;2096860;28;20032;-74
2023/09/26 06:52:56;;;;;;;21.13;14.98;;;;;;;;;;2088893;28;20500;-74
2023/09/26 06:54:17;;;;;;;20.92;15.38;;;;;;;;;;2094971;28;20510;-75
2023/09/26 06:55:39;;;;;;;24.92;14.50;;;;;;;;;;2096991;28;20028;-74
2023/09/26 06:57:00;;;;;;;18.38;14.20;;;;;;;;;;2096821;28;20036;-74
2023/09/26 06:58:21;;;;;;;26.00;15.98;;;;;;;;;;2096056;28;20039;-73
2023/09/26 06:59:42;;;;;;;20.80;15.02;;;;;;;;;;2095546;28;20508;-73
2023/09/26 07:01:03;;;;;;;18.48;15.68;;;;;;;;;;2095796;28;20040;-73
2023/09/26 07:02:24;;;;;;;19.95;14.05;;;;;;;;;;2094020;28;20032;-73
2023/09/26 07:03:45;;;;;;;20.50;14.98;;;;;;;;;;2097002;28;20028;-73
2023/09/26 07:05:07;;;;;;;19.45;14.90;;;;;;;;;;2097492;28;20393;-73
2023/09/26 07:06:30;;;;;;;20.90;14.35;;;;;;;;;;2096820;28;20553;-73
2023/09/26 07:07:50;;;;;;;;;;;;;;;;;;2096737;28;20025;-73
2023/09/26 07:09:15;;;;;;;20.88;15.20;;;;;;;;;;2098372;28;19905;-73
2023/09/26 07:10:37;;;;;;;18.90;14.75;;;;;;;;;;2097023;28;20120;-74
2023/09/26 07:11:58;;;;;;;20.65;15.00;;;;;;;;;;2096068;28;20033;-74
2023/09/26 07:13:19;;;;;;;21.98;14.57;;;;;;;;;;2081463;28;20025;-73
2023/09/26 07:14:40;;;;;;;22.42;15.35;;;;;;;;;;2089185;28;20032;-74
2023/09/26 07:16:05;;;;;;;19.63;14.68;;;;;;;;;;2095495;28;20039;-73
2023/09/26 07:17:26;;;;;;;20.08;14.65;;;;;;;;;;2094098;28;20024;-73
2023/09/26 07:18:46;;;;;;;19.55;14.38;;;;;;;;;;2096086;28;20020;-73
2023/09/26 07:20:13;;;;;;;22.52;15.27;;;;;;;;;;2092395;28;20041;-73
2023/09/26 07:21:34;;;;;;;19.50;14.95;;;;;;;;;;2097037;28;20021;-73
2023/09/26 07:22:55;;;;;;;21.40;15.52;;;;;;;;;;2096408;28;20093;-73
2023/09/26 07:24:16;;;;;;;19.00;14.23;;;;;;;;;;2096492;28;20028;-72
2023/09/26 07:25:36;;;;;;;19.33;15.25;;;;;;;;;;2096000;28;20012;-74
2023/09/26 07:26:57;;;;;;;20.08;15.30;;;;;;;;;;2094940;28;20082;-73
2023/09/26 07:28:18;;;;;;;21.23;15.02;;;;;;;;;;2097317;28;20044;-73
2023/09/26 07:29:39;;;;;;;22.70;15.25;;;;;;;;;;2094216;28;20427;-73
2023/09/26 07:31:01;;;;;;;17.90;13.82;;;;;;;;;;2097199;28;20488;-74
2023/09/26 07:32:21;;;;;;;17.23;14.25;;;;;;;;;;2096319;28;20460;-74
2023/09/26 07:33:43;;;;;;;25.08;13.88;;;;;;;;;;2095919;28;20025;-71
2023/09/26 07:35:04;;;;;;;18.90;14.20;;;;;;;;;;2094910;28;20368;-72
2023/09/26 07:36:25;;;;;;;15.70;12.32;;;;;;;;;;2097159;28;20037;-72
2023/09/26 07:37:46;;;;;;;19.08;12.95;;;;;;;;;;2101780;28;20012;-71
2023/09/26 07:39:08;;;;;;;18.92;12.60;;;;;;;;;;2092851;28;20452;-72
2023/09/26 07:40:29;;;;;;;16.95;11.80;;;;;;;;;;2092821;28;20056;-71
2023/09/26 07:41:49;;;;;;;15.60;12.32;;;;;;;;;;2096615;28;20025;-72
2023/09/26 07:43:10;;;;;;;15.85;11.98;;;;;;;;;;2092584;28;20032;-70
2023/09/26 07:44:34;;;;;;;22.25;12.40;;;;;;;;;;2097476;28;20040;-71
2023/09/26 07:46:15;;;;;;;18.38;12.57;;;;;;;;;;2096067;28;20028;-71
2023/09/26 07:47:36;;;;;;;16.40;12.93;;;;;;;;;;2095009;28;20485;-72
2023/09/26 07:48:57;;;;;;;17.45;12.73;;;;;;;;;;2096156;28;20025;-72
2023/09/26 07:50:21;;;;;;;18.83;12.90;;;;;;;;;;2095703;28;20048;-72
2023/09/26 07:51:42;;;;;;;16.52;10.82;;;;;;;;;;2096590;28;20036;-72
2023/09/26 07:53:03;;;;;;;17.65;11.65;;;;;;;;;;2096836;28;20050;-71
2023/09/26 07:54:24;;;;;;;13.95;11.15;;;;;;;;;;2096744;28;20028;-71